Aeroporto :
LOGIN :

Iscrizione | Disclaimer

   EN    FR    IT 

 










Sommario :    VFR   VFR Marginale   IFR   IFR Intensivo   IFR Molto Intensivo
Visibilità : 
Base nubi : 
>= 8 km
>= 3000ft
5 / 8 km
1000 / 3000 ft
1500m / 5 km
500 / 1000 ft
800 / 1500m
200 / 500 ft
< 800m
< 200 ft
Simboli :   Temporali  Nebbia  Neve Forte  Precipitazioni Forti  Vento > 20 kt
SIGMETs :   Varie  Temporali  Ghiacco  Turbolenza  Onda orograficha  Ceneri Vulcaniche






- Altitudine del aeroporto : 1 ft


EGCK - Caernarfon

ULTIMO METAR :
  • 211550Z VRB02KT 9999 FEW035 06/00 Q0998

METARs OBSOLETI :
  • 211520Z 09007G18KT 030V170 9999 FEW036 06/01 Q0999
  • 211450Z 12014KT 090V160 9999 FEW036 06/00 Q0999
  • 211420Z 12019KT 9999 FEW034 06/01 Q0999
  • 211350Z 11016KT 9999 FEW035 07/01 Q0999
  • 211320Z 11016G29KT 9999 FEW035 06/01 Q0999

TAF TAF EGCK
Valido dal 21 a 15 ore il 22 a 00 ore UTC


211355Z 2115/2124 08009KT 9999 FEW035
TEMPO 2115/2124 11018G28KT
PROB30
TEMPO 2115/2124 BKN012
PROB30
TEMPO 2116/2121 6000 RA



MetMap, La meteo Aeronautica in un colpo d'occhio ! - Copyright ORBIFLY Dicembre 2007 - Disclaimer

ORBIFLY MET'MAP TEAM :

Programmazione e sviluppo : Alexandra Zaïnal
Concezione e sviluppo : Baudouin d'Aumeries
Co-Programmazione e sviluppo : Marc-Olivier Méhu
Supporto tecnico e logistico : Manuel Goepfert
Aiuto per la traduzione : Arnaldo La Scala

Contatto : metmap@orbifly.com




FONTI E CREDITI :

   NOAA